KSNY

Details ICAO KSNY (SNY)
Name SIDNEY MUNI LLOYD W CARR FLD
Region United States
Timezone America/Denver (UTC-7.0)
Plans Departing 2
Arriving 6
Stats Elevation 4,313 ft / 1,315 m (AMSL)
Location 41.099894° -102.984508°
Runways 2
Magnetic Variation 7.210° E
Sunrise 2017-12-17 14:12:58 UTC / 2017-12-17 07:12:58 Local
Sunset 2017-12-17 23:26:09 UTC / 2017-12-17 16:26:09 Local
Advertisement - Login to hide

Runways

ID Width Length Bearing (true) Bearing (mag) Surface Threshold Offset Overrun Length
02 75 ft / 23 m 3,592 ft / 1,095 m 36.20° 28.99° Unknown 0 ft / 0 m 0 ft / 0 m
12 98 ft / 30 m 6,599 ft / 2,011 m 134.99° 127.78° Concrete 810 ft / 247 m 0 ft / 0 m
20 75 ft / 23 m 3,592 ft / 1,095 m 216.20° 208.99° Unknown 0 ft / 0 m 0 ft / 0 m
30 98 ft / 30 m 6,599 ft / 2,011 m 315.00° 307.79° Concrete 0 ft / 0 m 0 ft / 0 m

Map

Weather


0- 5 10 15 20 25 30 35+ Temperature / ° C

Clouds and Precipitation
Forecast for 2017-12-17 12:00 UTC. Updated an hour ago

Ground ~20,000 ft ~40,000 ft Winds

METAR

KSNY 170953Z AUTO 04007KT 4SM BR OVC004 M01/M02 A2998 RMK AO2 FZRAB0859E09B20E30 SLP170 P0000 I1002 T10111017

TAF

TAF TAF AMD KSNY 170934Z 1710/1806 05010KT 2SM -FZDZ OVC002 FM171800 25008KT 3SM BR SCT005 OVC015 FM172100 27010KT P6SM SCT015 OVC050

Frequencies

Recorded 118.02 MHz ASOS
Unicom 122.80 MHz CTAF/UNICOM
Warning: Do not use this data for real-world aviation or navigation. No guarantee of current accuracy is given.